createdAt,value
2022-12-01T00:01:13.030Z,97180.81
2022-12-01T00:03:39.660Z,97184.69
2022-12-01T00:06:10.282Z,97174.97
2022-12-01T00:08:37.366Z,97174.50
2022-12-01T00:11:09.968Z,97166.47
2022-12-01T00:13:36.914Z,97174.31
2022-12-01T00:16:16.862Z,97177.66
2022-12-01T00:18:43.943Z,97176.44
2022-12-01T00:21:18.844Z,97165.34
2022-12-01T00:23:47.630Z,97171.19
2022-12-01T00:26:15.974Z,97171.19
2022-12-01T00:28:42.690Z,97169.59
2022-12-01T00:31:11.169Z,97174.78
2022-12-01T00:33:38.438Z,97175.53
2022-12-01T00:36:05.553Z,97173.97
2022-12-01T00:38:32.902Z,97203.25
2022-12-01T00:40:59.588Z,97180.44
2022-12-01T00:43:26.099Z,97183.25
2022-12-01T00:45:52.771Z,97177.47
2022-12-01T00:48:19.382Z,97179.13
2022-12-01T00:50:46.105Z,97190.41
2022-12-01T00:53:12.604Z,97183.16
2022-12-01T00:55:40.222Z,97162.81
2022-12-01T00:58:07.599Z,97180.09
2022-12-01T01:00:34.166Z,97176.09
2022-12-01T01:03:00.706Z,97189.75
2022-12-01T01:05:27.277Z,97183.16
2022-12-01T01:07:53.872Z,97178.34
2022-12-01T01:10:20.439Z,97171.19
2022-12-01T01:12:46.989Z,97173.53
2022-12-01T01:15:13.532Z,97181.34
2022-12-01T01:17:40.111Z,97172.41
2022-12-01T01:20:07.202Z,97172.56
2022-12-01T01:22:35.314Z,97163.34
2022-12-01T01:25:01.846Z,97167.25
2022-12-01T01:27:28.342Z,97160.78
2022-12-01T01:29:54.925Z,97166.47
2022-12-01T01:32:21.502Z,97156.75
2022-12-01T01:34:48.038Z,97154.22
2022-12-01T01:37:14.539Z,97152.63
2022-12-01T01:39:41.019Z,97165.41
2022-12-01T01:42:12.722Z,97152.53
2022-12-01T01:44:51.377Z,97151.44
2022-12-01T01:47:40.752Z,97146.38
2022-12-01T01:50:14.822Z,97136.97
2022-12-01T01:53:02.370Z,97129.91
2022-12-01T01:55:31.847Z,97118.91
2022-12-01T01:57:59.401Z,97118.91
2022-12-01T02:00:26.324Z,97121.72
2022-12-01T02:02:53.861Z,97108.56
2022-12-01T02:05:33.112Z,97100.19
2022-12-01T02:08:01.583Z,97104.53
2022-12-01T02:10:45.969Z,97108.22
2022-12-01T02:13:27.709Z,97100.88
2022-12-01T02:16:14.507Z,97114.38
2022-12-01T02:19:05.492Z,97118.19
2022-12-01T02:21:59.448Z,97099.09
2022-12-01T02:25:01.414Z,97108.53
2022-12-01T02:27:33.763Z,97103.44
2022-12-01T02:30:17.865Z,97112.38
2022-12-01T02:32:52.910Z,97104.69
2022-12-01T02:35:25.823Z,97100.63
2022-12-01T02:37:59.355Z,97104.69
2022-12-01T02:40:32.668Z,97099.28
2022-12-01T02:43:12.355Z,97088.69
2022-12-01T02:46:05.192Z,97085.31
2022-12-01T02:48:35.085Z,97095.34
2022-12-01T02:51:26.584Z,97097.16
2022-12-01T02:53:54.761Z,97090.38
2022-12-01T02:56:23.379Z,97085.75
2022-12-01T02:58:50.409Z,97088.09
2022-12-01T03:01:20.035Z,97098.81
2022-12-01T03:04:04.794Z,97094.47
2022-12-01T03:06:40.453Z,97081.03
2022-12-01T03:09:27.126Z,97094.47
2022-12-01T03:12:29.032Z,97097.09
2022-12-01T03:15:20.152Z,97074.13
2022-12-01T03:17:57.941Z,97093.84
2022-12-01T03:20:42.380Z,97082.16
2022-12-01T03:23:17.414Z,97065.72
2022-12-01T03:25:48.421Z,97083.69
2022-12-01T03:28:22.599Z,97079.84
2022-12-01T03:30:54.305Z,97084.78
2022-12-01T03:33:34.986Z,97074.47
2022-12-01T03:36:15.268Z,97080.06
2022-12-01T03:38:46.861Z,97074.81
2022-12-01T03:41:20.511Z,97073.34
2022-12-01T03:43:54.621Z,97065.53
2022-12-01T03:46:50.804Z,97055.25
2022-12-01T03:49:18.449Z,97061.50
2022-12-01T03:52:03.622Z,97067.72
2022-12-01T03:54:54.237Z,97079.00
2022-12-01T03:57:30.639Z,97056.25
2022-12-01T03:59:59.518Z,97067.56
2022-12-01T04:02:28.187Z,97053.25
2022-12-01T04:04:54.952Z,97036.81
2022-12-01T04:07:23.561Z,97047.63
2022-12-01T04:09:50.532Z,97048.09
2022-12-01T04:12:35.241Z,97058.28
2022-12-01T04:15:05.696Z,97050.56
2022-12-01T04:17:32.287Z,97043.31
2022-12-01T04:19:58.890Z,97042.84
2022-12-01T04:22:25.742Z,97053.47
2022-12-01T04:24:52.937Z,97072.34
2022-12-01T04:27:20.545Z,97074.63
2022-12-01T04:29:47.665Z,97063.00
2022-12-01T04:32:14.574Z,97069.47
2022-12-01T04:34:41.169Z,97068.34
2022-12-01T04:37:10.077Z,97073.59
2022-12-01T04:39:36.645Z,97075.94
2022-12-01T04:42:03.552Z,97066.22
2022-12-01T04:44:34.763Z,97076.19
2022-12-01T04:47:03.288Z,97065.06
2022-12-01T04:49:30.235Z,97050.41
2022-12-01T04:51:56.892Z,97061.75
2022-12-01T04:54:24.021Z,97065.19
2022-12-01T04:56:50.673Z,97067.66
2022-12-01T04:59:17.418Z,97061.28
2022-12-01T05:01:44.855Z,97049.31
2022-12-01T05:04:12.349Z,97072.78
2022-12-01T05:06:39.079Z,97067.97
2022-12-01T05:09:06.468Z,97082.75
2022-12-01T05:11:33.146Z,97074.00
2022-12-01T05:14:00.267Z,97074.22
2022-12-01T05:16:29.931Z,97075.91
2022-12-01T05:19:17.167Z,97074.53
2022-12-01T05:21:45.060Z,97074.00
2022-12-01T05:24:12.946Z,97067.53
2022-12-01T05:26:40.140Z,97058.94
2022-12-01T05:29:06.856Z,97061.59
2022-12-01T05:31:33.622Z,97073.22
2022-12-01T05:34:00.787Z,97073.13
2022-12-01T05:36:27.658Z,97069.19
2022-12-01T05:38:54.809Z,97069.09
2022-12-01T05:41:21.769Z,97076.94
2022-12-01T05:43:48.300Z,97075.56
2022-12-01T05:46:14.881Z,97074.00
2022-12-01T05:48:42.317Z,97065.38
2022-12-01T05:51:10.281Z,97077.34
2022-12-01T05:53:37.077Z,97084.88
2022-12-01T05:56:04.488Z,97069.00
2022-12-01T05:58:31.038Z,97067.25
2022-12-01T06:00:57.643Z,97082.78
2022-12-01T06:03:24.285Z,97088.03
2022-12-01T06:05:51.004Z,97090.97
2022-12-01T06:08:17.628Z,97074.41
2022-12-01T06:10:45.094Z,97082.03
2022-12-01T06:13:11.575Z,97072.44
2022-12-01T06:15:38.125Z,97090.75
2022-12-01T06:18:04.704Z,97092.88
2022-12-01T06:20:31.317Z,97084.13
2022-12-01T06:22:59.527Z,97076.56
2022-12-01T06:25:26.141Z,97085.84
2022-12-01T06:27:57.591Z,97086.19
2022-12-01T06:30:24.331Z,97073.75
2022-12-01T06:32:50.899Z,97083.59
2022-12-01T06:35:17.441Z,97075.56
2022-12-01T06:37:44.203Z,97091.47
2022-12-01T06:40:11.652Z,97081.94
2022-12-01T06:42:38.111Z,97089.88
2022-12-01T06:45:05.470Z,97084.63
2022-12-01T06:47:31.973Z,97098.94
2022-12-01T06:49:58.562Z,97101.06
2022-12-01T06:52:25.216Z,97098.94
2022-12-01T06:54:51.803Z,97072.53
2022-12-01T06:57:18.685Z,97084.59
2022-12-01T06:59:45.421Z,97070.28
2022-12-01T07:02:12.263Z,97070.38
2022-12-01T07:04:38.952Z,97076.06
2022-12-01T07:07:06.352Z,97073.03
2022-12-01T07:09:32.821Z,97067.09
2022-12-01T07:11:59.349Z,97069.78
2022-12-01T07:14:31.655Z,97064.31
2022-12-01T07:16:59.213Z,97067.44
2022-12-01T07:19:26.124Z,97042.75
2022-12-01T07:21:52.698Z,97050.44
2022-12-01T07:24:19.207Z,97060.50
2022-12-01T07:26:45.785Z,97078.13
2022-12-01T07:29:12.369Z,97066.88
2022-12-01T07:31:39.408Z,97068.41
2022-12-01T07:34:06.535Z,97070.56
2022-12-01T07:36:33.332Z,97070.75
2022-12-01T07:39:00.362Z,97057.06
2022-12-01T07:41:26.914Z,97051.72
2022-12-01T07:43:55.295Z,97058.44
2022-12-01T07:46:25.417Z,97056.47
2022-12-01T07:48:53.361Z,97053.00
2022-12-01T07:51:21.090Z,97067.00
2022-12-01T07:53:49.623Z,97054.25
2022-12-01T07:56:17.520Z,97053.47
2022-12-01T07:58:44.249Z,97076.00
2022-12-01T08:01:14.006Z,97071.06
2022-12-01T08:03:41.340Z,97071.22
2022-12-01T08:06:09.400Z,97063.84
2022-12-01T08:08:37.712Z,97080.06
2022-12-01T08:11:06.804Z,97073.34
2022-12-01T08:13:34.010Z,97077.47
2022-12-01T08:16:04.815Z,97069.63
2022-12-01T08:18:33.677Z,97087.88
2022-12-01T08:21:00.226Z,97091.13
2022-12-01T08:23:26.913Z,97095.03
2022-12-01T08:25:54.065Z,97088.13
2022-12-01T08:28:20.837Z,97096.50
2022-12-01T08:30:47.727Z,97098.50
2022-12-01T08:33:14.540Z,97096.25
2022-12-01T08:35:41.338Z,97090.56
2022-12-01T08:38:08.757Z,97099.38
2022-12-01T08:40:35.199Z,97092.22
2022-12-01T08:43:01.870Z,97098.25
2022-12-01T08:45:28.649Z,97092.22
2022-12-01T08:47:58.865Z,97087.31
2022-12-01T08:50:26.874Z,97083.72
2022-12-01T08:52:53.838Z,97086.06
2022-12-01T08:55:21.422Z,97078.72
2022-12-01T08:57:48.236Z,97079.25
2022-12-01T09:00:15.692Z,97076.13
2022-12-01T09:02:42.177Z,97084.19
2022-12-01T09:05:08.967Z,97091.88
2022-12-01T09:07:35.696Z,97093.66
2022-12-01T09:10:02.351Z,97090.59
2022-12-01T09:12:29.731Z,97079.00
2022-12-01T09:14:56.149Z,97085.97
2022-12-01T09:17:23.766Z,97075.06
2022-12-01T09:19:50.618Z,97085.00
2022-12-01T09:22:17.509Z,97085.28
2022-12-01T09:24:44.029Z,97069.19
2022-12-01T09:27:10.696Z,97065.16
2022-12-01T09:29:37.282Z,97083.06
2022-12-01T09:32:04.080Z,97084.41
2022-12-01T09:34:30.722Z,97084.00
2022-12-01T09:36:58.637Z,97087.22
2022-12-01T09:39:25.889Z,97068.63
2022-12-01T09:42:08.265Z,97085.31
2022-12-01T09:44:51.385Z,97082.88
2022-12-01T09:47:37.003Z,97093.38
2022-12-01T09:50:24.110Z,97092.25
2022-12-01T09:52:54.831Z,97093.59
2022-12-01T09:55:24.592Z,97090.47
2022-12-01T09:57:54.152Z,97099.88
2022-12-01T10:00:24.078Z,97082.28
2022-12-01T10:02:54.357Z,97085.66
2022-12-01T10:05:24.082Z,97078.63
2022-12-01T10:08:02.209Z,97086.88
2022-12-01T10:10:37.050Z,97083.66
2022-12-01T10:13:15.482Z,97090.94
2022-12-01T10:15:45.746Z,97081.41
2022-12-01T10:18:24.337Z,97082.41
2022-12-01T10:21:14.608Z,97084.66
2022-12-01T10:24:10.194Z,97068.28
2022-12-01T10:26:56.666Z,97095.59
2022-12-01T10:29:46.404Z,97088.59
2022-12-01T10:32:18.810Z,97085.44
2022-12-01T10:34:47.945Z,97077.25
2022-12-01T10:37:23.653Z,97091.03
2022-12-01T10:39:52.981Z,97080.94
2022-12-01T10:42:47.784Z,97088.91
2022-12-01T10:45:27.179Z,97090.44
2022-12-01T10:48:11.539Z,97074.97
2022-12-01T10:50:38.184Z,97069.84
2022-12-01T10:53:05.119Z,97067.50
2022-12-01T10:55:43.458Z,97064.56
2022-12-01T10:58:17.146Z,97067.94
2022-12-01T11:01:01.961Z,97045.31
2022-12-01T11:03:36.142Z,97053.34
2022-12-01T11:06:06.055Z,97054.00
2022-12-01T11:08:44.405Z,97046.25
2022-12-01T11:11:27.969Z,97057.22
2022-12-01T11:13:56.381Z,97054.50
2022-12-01T11:16:41.447Z,97047.78
2022-12-01T11:19:33.663Z,97052.66
2022-12-01T11:22:21.875Z,97059.16
2022-12-01T11:24:54.190Z,97065.94
2022-12-01T11:27:27.272Z,97049.56
2022-12-01T11:30:24.631Z,97051.00
2022-12-01T11:32:58.174Z,97048.03
2022-12-01T11:35:28.290Z,97045.88
2022-12-01T11:40:50.083Z,97050.34
2022-12-01T11:43:25.325Z,97070.03
2022-12-01T11:45:53.476Z,97050.91
2022-12-01T11:48:28.919Z,97052.84
2022-12-01T11:51:07.814Z,97048.25
2022-12-01T11:53:35.792Z,97052.94
2022-12-01T11:56:23.476Z,97067.84
2022-12-01T11:59:03.170Z,97060.06
2022-12-01T12:01:57.019Z,97065.00
2022-12-01T12:04:52.050Z,97069.34
2022-12-01T12:07:43.662Z,97073.06
2022-12-01T12:10:22.538Z,97077.22
2022-12-01T12:13:26.985Z,97088.41
2022-12-01T12:16:06.841Z,97091.00
2022-12-01T12:18:46.336Z,97082.59
2022-12-01T12:21:39.173Z,97097.94
2022-12-01T12:24:24.051Z,97096.50
2022-12-01T12:26:53.214Z,97084.97
2022-12-01T12:29:51.955Z,97103.78
2022-12-01T12:32:36.953Z,97102.91
2022-12-01T12:35:24.758Z,97103.34
2022-12-01T12:38:09.500Z,97102.66
2022-12-01T12:40:42.153Z,97106.13
2022-12-01T12:43:30.506Z,97111.19
2022-12-01T12:45:59.819Z,97112.19
2022-12-01T12:49:18.621Z,97099.41
2022-12-01T12:51:52.754Z,97106.59
2022-12-01T12:54:35.879Z,97097.88
2022-12-01T12:57:08.619Z,97097.53
2022-12-01T12:59:52.289Z,97104.91
2022-12-01T13:02:33.289Z,97100.00
2022-12-01T13:05:06.974Z,97097.19
2022-12-01T13:07:37.220Z,97098.53
2022-12-01T13:10:27.035Z,97115.78
2022-12-01T13:13:11.721Z,97111.84
2022-12-01T13:15:40.643Z,97107.25
2022-12-01T13:18:22.290Z,97126.72
2022-12-01T13:20:50.158Z,97129.75
2022-12-01T13:23:20.246Z,97133.31
2022-12-01T13:25:50.448Z,97136.44
2022-12-01T13:28:30.208Z,97138.56
2022-12-01T13:31:01.035Z,97131.53
2022-12-01T13:33:28.067Z,97126.69
2022-12-01T13:36:23.048Z,97140.81
2022-12-01T13:38:43.256Z,97143.47
2022-12-01T13:41:11.445Z,97144.47
2022-12-01T13:43:53.372Z,97143.03
2022-12-01T13:46:27.066Z,97134.97
2022-12-01T13:48:56.909Z,97139.00
2022-12-01T13:51:25.139Z,97141.78
2022-12-01T13:54:03.820Z,97151.84
2022-12-01T13:56:43.989Z,97149.69
2022-12-01T14:00:01.382Z,97142.84
2022-12-01T14:02:30.735Z,97160.41
2022-12-01T14:05:23.380Z,97145.69
2022-12-01T14:07:51.883Z,97163.22
2022-12-01T14:10:27.098Z,97153.59
2022-12-01T14:12:57.731Z,97164.31
2022-12-01T14:15:29.090Z,97156.03
2022-12-01T14:18:22.199Z,97161.38
2022-12-01T14:20:49.500Z,97163.03
2022-12-01T14:23:35.276Z,97170.47
2022-12-01T14:26:05.665Z,97175.03
2022-12-01T14:28:59.835Z,97174.78
2022-12-01T14:31:32.587Z,97173.19
2022-12-01T14:34:03.195Z,97167.81
2022-12-01T14:36:32.703Z,97182.47
2022-12-01T14:38:59.327Z,97184.38
2022-12-01T14:41:29.767Z,97176.56
2022-12-01T14:44:05.001Z,97183.19
2022-12-01T14:46:40.756Z,97193.50
2022-12-01T14:49:14.160Z,97189.91
2022-12-01T14:51:45.742Z,97192.28
2022-12-01T14:54:20.506Z,97203.97
2022-12-01T14:56:51.035Z,97197.88
2022-12-01T14:59:24.499Z,97205.91
2022-12-01T15:01:53.926Z,97202.06
2022-12-01T15:04:20.789Z,97189.66
2022-12-01T15:06:54.588Z,97200.69
2022-12-01T15:09:36.966Z,97191.25
2022-12-01T15:12:07.750Z,97197.59
2022-12-01T15:14:47.220Z,97204.50
2022-12-01T15:17:34.463Z,97207.03
2022-12-01T15:20:01.309Z,97206.41
2022-12-01T15:22:31.307Z,97208.66
2022-12-01T15:25:13.180Z,97220.19
2022-12-01T15:27:39.914Z,97214.34
2022-12-01T15:30:07.983Z,97213.63
2022-12-01T15:32:38.067Z,97215.63
2022-12-01T15:35:05.709Z,97220.69
2022-12-01T15:37:43.046Z,97229.59
2022-12-01T15:43:06.517Z,97237.91
2022-12-01T15:45:46.107Z,97239.72
2022-12-01T15:48:24.676Z,97237.38
2022-12-01T15:51:27.609Z,97236.13
2022-12-01T15:54:01.128Z,97238.41
2022-12-01T15:56:30.803Z,97243.81
2022-12-01T15:59:20.618Z,97246.78
2022-12-01T16:01:47.276Z,97244.38
2022-12-01T16:04:21.486Z,97248.66
2022-12-01T16:07:16.956Z,97255.03
2022-12-01T16:09:54.860Z,97245.44
2022-12-01T16:12:32.353Z,97253.38
2022-12-01T16:15:03.333Z,97258.66
2022-12-01T16:17:45.469Z,97258.97
2022-12-01T16:20:42.565Z,97254.59
2022-12-01T16:23:26.241Z,97255.09
2022-12-01T16:25:54.652Z,97263.81
2022-12-01T16:28:31.139Z,97263.31
2022-12-01T16:30:58.037Z,97261.44
2022-12-01T16:33:26.652Z,97247.50
2022-12-01T16:35:53.962Z,97261.38
2022-12-01T16:38:24.601Z,97259.03
2022-12-01T16:40:54.475Z,97258.94
2022-12-01T16:43:23.417Z,97258.44
2022-12-01T16:45:53.024Z,97262.44
2022-12-01T16:48:20.451Z,97264.78
2022-12-01T16:50:50.511Z,97278.22
2022-12-01T16:53:17.922Z,97283.03
2022-12-01T16:55:47.478Z,97285.38
2022-12-01T16:58:14.397Z,97287.81
2022-12-01T17:00:41.631Z,97289.25
2022-12-01T17:03:10.902Z,97293.50
2022-12-01T17:05:37.679Z,97292.66
2022-12-01T17:08:04.835Z,97302.56
2022-12-01T17:10:31.597Z,97295.44
2022-12-01T17:12:58.109Z,97298.94
2022-12-01T17:15:24.655Z,97299.44
2022-12-01T17:17:51.486Z,97307.94
2022-12-01T17:20:18.264Z,97307.94
2022-12-01T17:22:44.825Z,97306.34
2022-12-01T17:25:11.401Z,97319.19
2022-12-01T17:27:38.808Z,97331.16
2022-12-01T17:30:06.322Z,97334.31
2022-12-01T17:32:32.928Z,97337.50
2022-12-01T17:34:59.522Z,97332.03
2022-12-01T17:37:27.975Z,97332.81
2022-12-01T17:39:54.749Z,97333.59
2022-12-01T17:42:21.913Z,97338.81
2022-12-01T17:44:48.840Z,97339.13
2022-12-01T17:47:15.681Z,97331.06
2022-12-01T17:49:42.330Z,97338.94
2022-12-01T17:52:09.019Z,97337.72
2022-12-01T17:54:35.615Z,97342.56
2022-12-01T17:57:02.195Z,97345.25
2022-12-01T17:59:28.796Z,97343.59
2022-12-01T18:01:55.641Z,97348.75
2022-12-01T18:04:22.333Z,97345.66
2022-12-01T18:06:53.722Z,97342.81
2022-12-01T18:09:21.264Z,97353.09
2022-12-01T18:11:48.304Z,97351.16
2022-12-01T18:14:17.790Z,97346.56
2022-12-01T18:16:45.077Z,97348.63
2022-12-01T18:19:12.006Z,97354.22
2022-12-01T18:21:39.036Z,97350.56
2022-12-01T18:24:08.823Z,97348.38
2022-12-01T18:26:37.013Z,97357.72
2022-12-01T18:29:26.157Z,97351.66
2022-12-01T18:31:57.384Z,97359.28
2022-12-01T18:34:25.549Z,97345.78
2022-12-01T18:36:52.240Z,97363.03
2022-12-01T18:39:18.854Z,97364.59
2022-12-01T18:41:45.364Z,97365.88
2022-12-01T18:44:11.999Z,97366.72
2022-12-01T18:46:39.122Z,97356.53
2022-12-01T18:49:09.070Z,97373.44
2022-12-01T18:51:37.422Z,97373.44
2022-12-01T18:54:05.622Z,97381.44
2022-12-01T18:56:32.721Z,97380.34
2022-12-01T18:59:05.083Z,97376.13
2022-12-01T19:01:36.100Z,97384.78
2022-12-01T19:04:04.013Z,97380.81
2022-12-01T19:06:30.763Z,97379.06
2022-12-01T19:09:00.119Z,97386.66
2022-12-01T19:11:27.065Z,97391.00
2022-12-01T19:13:55.861Z,97390.53
2022-12-01T19:16:22.510Z,97397.28
2022-12-01T19:18:49.317Z,97396.09
2022-12-01T19:21:18.905Z,97383.97
2022-12-01T19:23:46.548Z,97396.09
2022-12-01T19:26:16.443Z,97401.78
2022-12-01T19:28:45.571Z,97406.09
2022-12-01T19:31:15.426Z,97408.44
2022-12-01T19:33:42.659Z,97406.75
2022-12-01T19:36:12.054Z,97401.66
2022-12-01T19:38:39.546Z,97408.75
2022-12-01T19:41:06.682Z,97401.25
2022-12-01T19:43:34.480Z,97410.03
2022-12-01T19:46:05.900Z,97414.38
2022-12-01T19:48:32.627Z,97411.66
2022-12-01T19:50:59.468Z,97408.41
2022-12-01T19:53:30.509Z,97419.47
2022-12-01T19:56:04.454Z,97412.72
2022-12-01T19:58:34.208Z,97419.00
2022-12-01T20:01:10.237Z,97418.66
2022-12-01T20:03:38.157Z,97420.22
2022-12-01T20:06:06.521Z,97421.72
2022-12-01T20:08:35.947Z,97425.78
2022-12-01T20:11:06.050Z,97421.44
2022-12-01T20:13:34.693Z,97420.28
2022-12-01T20:16:06.148Z,97425.16
2022-12-01T20:18:33.206Z,97426.00
2022-12-01T20:21:07.269Z,97434.00
2022-12-01T20:23:34.701Z,97433.50
2022-12-01T20:26:06.012Z,97431.50
2022-12-01T20:28:33.809Z,97443.44
2022-12-01T20:31:00.426Z,97439.44
2022-12-01T20:33:27.671Z,97441.81
2022-12-01T20:35:54.847Z,97446.53
2022-12-01T20:38:27.065Z,97444.91
2022-12-01T20:40:54.249Z,97444.56
2022-12-01T20:43:20.967Z,97446.00
2022-12-01T20:45:47.571Z,97451.22
2022-12-01T20:48:14.837Z,97453.94
2022-12-01T20:50:41.513Z,97454.28
2022-12-01T20:53:08.160Z,97459.47
2022-12-01T20:55:36.741Z,97454.69
2022-12-01T20:58:05.141Z,97454.28
2022-12-01T21:00:32.059Z,97461.41
2022-12-01T21:02:58.688Z,97468.66
2022-12-01T21:05:26.371Z,97463.00
2022-12-01T21:07:53.818Z,97470.56
2022-12-01T21:10:20.995Z,97467.41
2022-12-01T21:13:10.364Z,97466.25
2022-12-01T21:15:51.209Z,97465.41
2022-12-01T21:18:34.486Z,97470.25
2022-12-01T21:21:26.500Z,97475.84
2022-12-01T21:23:59.141Z,97475.03
2022-12-01T21:26:26.135Z,97484.13
2022-12-01T21:28:55.730Z,97486.13
2022-12-01T21:31:22.344Z,97488.16
2022-12-01T21:33:48.918Z,97486.91
2022-12-01T21:36:24.028Z,97490.06
2022-12-01T21:38:56.243Z,97494.03
2022-12-01T21:41:29.562Z,97490.94
2022-12-01T21:44:01.197Z,97491.69
2022-12-01T21:46:28.202Z,97499.69
2022-12-01T21:48:55.347Z,97492.91
2022-12-01T21:51:24.463Z,97495.34
2022-12-01T21:53:54.241Z,97491.81
2022-12-01T21:56:24.309Z,97501.75
2022-12-01T21:58:52.229Z,97495.34
2022-12-01T22:01:30.167Z,97504.88
2022-12-01T22:04:02.476Z,97493.38
2022-12-01T22:06:40.814Z,97497.78
2022-12-01T22:09:26.514Z,97497.38
2022-12-01T22:11:55.929Z,97493.44
2022-12-01T22:14:42.658Z,97498.16
2022-12-01T22:17:09.160Z,97487.94
2022-12-01T22:19:39.071Z,97497.91
2022-12-01T22:22:11.411Z,97502.63
2022-12-01T22:24:43.833Z,97494.63
2022-12-01T22:27:28.957Z,97490.31
2022-12-01T22:30:07.974Z,97503.88
2022-12-01T22:32:39.301Z,97498.31
2022-12-01T22:35:24.517Z,97501.59
2022-12-01T22:37:59.376Z,97494.41
2022-12-01T22:40:36.243Z,97503.13
2022-12-01T22:43:20.294Z,97497.94
2022-12-01T22:45:49.498Z,97489.22
2022-12-01T22:48:15.958Z,97497.53
2022-12-01T22:50:44.333Z,97492.72
2022-12-01T22:53:18.861Z,97495.94
2022-12-01T22:55:45.473Z,97491.53
2022-12-01T22:58:30.126Z,97490.72
2022-12-01T23:01:02.822Z,97493.50
2022-12-01T23:03:29.352Z,97491.97
2022-12-01T23:05:57.341Z,97496.91
2022-12-01T23:08:24.496Z,97490.53
2022-12-01T23:10:52.102Z,97483.75
2022-12-01T23:13:24.081Z,97496.00
2022-12-01T23:15:55.565Z,97490.38
2022-12-01T23:18:28.637Z,97488.66
2022-12-01T23:20:56.878Z,97492.56
2022-12-01T23:23:29.015Z,97485.34
2022-12-01T23:25:56.240Z,97491.31
2022-12-01T23:28:23.863Z,97486.47
2022-12-01T23:30:54.719Z,97479.34
2022-12-01T23:33:22.318Z,97490.88
2022-12-01T23:36:01.312Z,97494.09
2022-12-01T23:38:49.843Z,97485.00
2022-12-01T23:41:40.673Z,97492.56
2022-12-01T23:44:35.690Z,97490.22
2022-12-01T23:47:02.338Z,97487.81
2022-12-01T23:49:34.661Z,97487.78
2022-12-01T23:52:03.388Z,97498.84
2022-12-01T23:54:33.152Z,97498.13
2022-12-01T23:57:03.238Z,97480.41
2022-12-01T23:59:31.522Z,97494.22
